Time;durP1;ratioP1;P1;durP2;ratioP2;P2;SDS_P1;SDS_P2;PMS_P1;PMS_P2;Temp;Humidity;BMP_temperature;BMP_pressure;BME280_temperature;BME280_humidity;BME280_pressure;Samples;Min_cycle;Max_cycle;Signal;HPM_P1;HPM_P2
2022/10/23 04:01:24;;;;;;;1999.90;999.90;;;8.70;99.90;;;;;;5635145;22;20049;-82
2022/10/23 04:03:49;;;;;;;1999.90;999.90;;;8.60;99.90;;;;;;5076208;28;20045;-82
2022/10/23 04:06:15;;;;;;;1999.90;999.90;;;8.60;99.90;;;;;;5076548;28;20509;-82
2022/10/23 04:08:42;;;;;;;1999.90;999.90;;;8.50;99.90;;;;;;5078402;28;20401;-82
2022/10/23 04:11:08;;;;;;;1999.90;999.90;;;8.60;99.90;;;;;;5078982;28;20036;-83
2022/10/23 04:13:34;;;;;;;1999.90;999.90;;;8.50;99.90;;;;;;5079969;28;20037;-83
2022/10/23 04:16:00;;;;;;;1999.90;999.90;;;8.50;99.90;;;;;;5094849;28;20482;-83
2022/10/23 04:18:25;;;;;;;1999.90;999.90;;;8.40;99.90;;;;;;5081726;28;20442;-82
2022/10/23 04:20:51;;;;;;;1999.90;999.90;;;8.50;99.90;;;;;;5083119;28;20454;-82
2022/10/23 04:23:17;;;;;;;1999.90;999.90;;;8.40;99.90;;;;;;5081897;28;20072;-82
2022/10/23 04:25:43;;;;;;;1999.90;999.90;;;8.40;99.90;;;;;;5081994;28;20068;-82
2022/10/23 04:28:08;;;;;;;1999.90;999.90;;;8.50;99.90;;;;;;5083112;28;20431;-83
2022/10/23 04:30:34;;;;;;;1999.90;999.90;;;8.40;99.90;;;;;;5083775;28;20044;-83
2022/10/23 04:32:59;;;;;;;1999.90;999.90;;;8.40;99.90;;;;;;5084136;28;20104;-82
2022/10/23 04:35:25;;;;;;;1999.90;999.90;;;8.30;99.90;;;;;;5081906;28;20078;-83
2022/10/23 04:37:50;;;;;;;1999.90;999.90;;;8.30;99.90;;;;;;5096294;28;20120;-83
2022/10/23 04:40:16;;;;;;;1999.90;999.90;;;8.30;99.90;;;;;;5081930;28;20040;-83
2022/10/23 04:42:42;;;;;;;1999.90;999.90;;;8.30;99.90;;;;;;5097004;28;20047;-83
2022/10/23 04:45:07;;;;;;;1999.90;999.90;;;8.30;99.90;;;;;;5083426;28;20029;-81
2022/10/23 04:47:33;;;;;;;1999.90;999.90;;;8.10;99.90;;;;;;5086746;28;20033;-81
2022/10/23 04:49:59;;;;;;;1999.90;999.90;;;8.10;99.90;;;;;;5085111;28;20044;-81
2022/10/23 04:52:24;;;;;;;1999.90;999.90;;;8.10;99.90;;;;;;5078283;28;20033;-81
2022/10/23 04:54:50;;;;;;;1999.90;999.90;;;8.10;99.90;;;;;;5074176;28;20094;-81
2022/10/23 04:57:15;;;;;;;1999.90;999.90;;;8.10;99.90;;;;;;5076088;28;20036;-81
2022/10/23 04:59:41;;;;;;;1999.90;999.90;;;8.10;99.90;;;;;;5076062;28;20052;-81
2022/10/23 05:02:06;;;;;;;1999.90;999.90;;;8.10;99.90;;;;;;5075663;28;20040;-81
2022/10/23 05:04:32;;;;;;;1999.90;999.90;;;8.10;99.90;;;;;;5078946;28;20080;-81
2022/10/23 05:06:57;;;;;;;1999.90;999.90;;;8.10;99.90;;;;;;5079331;28;20029;-81
2022/10/23 05:09:23;;;;;;;1999.90;999.90;;;8.10;99.90;;;;;;5074243;28;20037;-81
2022/10/23 05:11:49;;;;;;;1999.90;999.90;;;8.10;99.90;;;;;;5074046;28;20111;-81
2022/10/23 05:14:14;;;;;;;1999.90;999.90;;;8.10;99.90;;;;;;5074813;28;20040;-81
2022/10/23 05:16:51;;;;;;;1999.90;999.90;;;8.10;99.90;;;;;;5090795;28;20473;-81
2022/10/23 05:19:22;;;;;;;1999.90;999.90;;;8.20;99.90;;;;;;5073993;28;20041;-81
2022/10/23 05:21:54;;;;;;;1999.90;999.90;;;8.20;99.90;;;;;;5074789;28;20087;-81
2022/10/23 05:24:21;;;;;;;1999.90;999.90;;;8.30;99.90;;;;;;5074072;28;20091;-81
2022/10/23 05:26:50;;;;;;;1999.90;999.90;;;8.30;99.90;;;;;;5074313;28;20102;-81
2022/10/23 05:29:16;;;;;;;1999.90;999.90;;;8.30;99.90;;;;;;5074015;28;20099;-81
2022/10/23 05:31:42;;;;;;;1999.90;999.90;;;8.40;99.90;;;;;;5073599;28;20037;-81
2022/10/23 05:34:09;;;;;;;1999.90;999.90;;;8.30;99.90;;;;;;5075473;28;20486;-81
2022/10/23 05:36:36;;;;;;;1999.90;999.90;;;8.50;99.90;;;;;;5075276;28;20039;-81
2022/10/23 05:39:03;;;;;;;1999.90;999.90;;;8.50;99.90;;;;;;5075902;28;20128;-81
2022/10/23 05:41:28;;;;;;;1999.90;999.90;;;8.60;99.90;;;;;;5075481;28;20062;-81
2022/10/23 05:43:54;;;;;;;1999.90;999.90;;;8.60;99.90;;;;;;5075271;28;20509;-81
2022/10/23 05:46:21;;;;;;;1999.90;999.90;;;8.60;99.90;;;;;;5090602;28;20075;-81
2022/10/23 05:48:51;;;;;;;1999.90;999.90;;;8.60;99.90;;;;;;5073430;28;20567;-81
2022/10/23 05:51:21;;;;;;;1999.90;999.90;;;8.50;99.90;;;;;;5073450;28;20033;-81
2022/10/23 05:53:47;;;;;;;1999.90;999.90;;;8.50;99.90;;;;;;5075711;28;20052;-81
2022/10/23 05:56:12;;;;;;;1999.90;999.90;;;8.50;99.90;;;;;;5074935;28;20480;-81
2022/10/23 05:58:38;;;;;;;1999.90;999.90;;;8.40;99.90;;;;;;5074240;28;20045;-81
2022/10/23 06:01:06;;;;;;;1999.90;999.90;;;8.40;99.90;;;;;;5075118;28;20037;-81
2022/10/23 06:03:32;;;;;;;1999.90;999.90;;;8.30;99.90;;;;;;5074839;28;20112;-81
2022/10/23 06:05:57;;;;;;;1999.90;999.90;;;8.30;99.90;;;;;;5066883;28;20091;-81
2022/10/23 06:08:23;;;;;;;1999.90;999.90;;;8.20;99.90;;;;;;5062856;28;20048;-81
2022/10/23 06:10:49;;;;;;;1999.90;999.90;;;8.30;99.90;;;;;;5065452;28;20037;-81
2022/10/23 06:13:14;;;;;;;1999.90;999.90;;;8.30;99.90;;;;;;5064359;28;20121;-81
2022/10/23 06:15:40;;;;;;;1999.90;999.90;;;8.50;99.90;;;;;;5063090;28;20356;-81
2022/10/23 06:18:06;;;;;;;1999.90;999.90;;;8.40;99.90;;;;;;5062993;28;20045;-81
2022/10/23 06:20:35;;;;;;;1999.90;999.90;;;8.40;99.90;;;;;;5064195;28;20061;-80
2022/10/23 06:23:00;;;;;;;1999.90;999.90;;;8.50;99.90;;;;;;5064694;28;20038;-81
2022/10/23 06:25:26;;;;;;;1999.90;999.90;;;8.50;99.90;;;;;;5059615;28;20379;-81
2022/10/23 06:27:52;;;;;;;1999.90;999.90;;;8.50;99.90;;;;;;5053407;28;20139;-81
2022/10/23 06:30:17;;;;;;;1999.90;999.90;;;8.60;99.90;;;;;;5053169;28;20030;-81
2022/10/23 06:32:43;;;;;;;1999.90;999.90;;;8.70;99.90;;;;;;5053462;28;20033;-81
2022/10/23 06:35:08;;;;;;;1999.90;999.90;;;8.80;99.90;;;;;;5055580;28;20438;-81
2022/10/23 06:37:34;;;;;;;1999.90;999.90;;;8.80;99.90;;;;;;5056420;28;20037;-81
2022/10/23 06:39:59;;;;;;;1999.90;999.90;;;8.90;99.90;;;;;;5057102;28;20084;-81
2022/10/23 06:42:25;;;;;;;1999.90;999.90;;;8.90;99.90;;;;;;5076205;28;20035;-80
2022/10/23 06:44:50;;;;;;;1999.90;999.90;;;8.80;99.90;;;;;;5076462;28;20511;-81
2022/10/23 06:47:16;;;;;;;1999.90;999.90;;;8.80;99.90;;;;;;5078138;28;20120;-82
2022/10/23 06:49:42;;;;;;;1999.90;999.90;;;8.90;99.90;;;;;;5076434;28;20060;-81
2022/10/23 06:52:07;;;;;;;1999.90;999.90;;;9.00;99.90;;;;;;5076761;28;20039;-81
2022/10/23 06:54:33;;;;;;;1999.90;999.90;;;9.10;99.90;;;;;;5076994;28;20089;-81
2022/10/23 06:56:58;;;;;;;1999.90;999.90;;;9.20;99.90;;;;;;5077973;28;20037;-80
2022/10/23 06:59:24;;;;;;;1999.90;999.90;;;9.40;99.90;;;;;;5076352;28;20061;-80
2022/10/23 07:01:50;;;;;;;1999.90;999.90;;;9.40;99.90;;;;;;5077729;28;20044;-79
2022/10/23 07:04:15;;;;;;;1999.90;999.90;;;9.50;99.90;;;;;;5077146;28;20124;-82
2022/10/23 07:06:41;;;;;;;1999.90;999.90;;;9.60;99.90;;;;;;5076971;28;20483;-84
2022/10/23 07:09:08;;;;;;;1999.90;999.90;;;9.60;99.90;;;;;;5076447;28;20044;-82
2022/10/23 07:11:34;;;;;;;1999.90;999.90;;;9.70;99.90;;;;;;5077543;28;20029;-81
2022/10/23 07:13:59;;;;;;;1999.90;999.90;;;9.70;99.90;;;;;;5075581;28;20039;-82
2022/10/23 07:16:25;;;;;;;1999.90;999.90;;;9.90;99.90;;;;;;5075593;28;20088;-82
2022/10/23 07:19:00;;;;;;;1999.90;999.90;;;10.00;99.90;;;;;;5075663;28;20513;-84
2022/10/23 07:21:36;;;;;;;1999.90;999.90;;;9.90;99.90;;;;;;5077170;28;20025;-81
2022/10/23 07:24:02;;;;;;;1999.90;999.90;;;9.90;99.90;;;;;;5080217;28;20471;-81
2022/10/23 07:26:28;;;;;;;1999.90;999.90;;;9.90;99.90;;;;;;5078154;28;20087;-80
2022/10/23 07:28:54;;;;;;;1999.90;999.90;;;10.00;99.90;;;;;;5081168;28;20037;-80
2022/10/23 07:31:26;;;;;;;1999.90;999.90;;;10.10;99.90;;;;;;5080040;28;20033;-80
2022/10/23 07:33:52;;;;;;;1999.90;999.90;;;10.20;99.90;;;;;;5079450;28;20558;-80
2022/10/23 07:36:18;;;;;;;1999.90;999.90;;;10.40;99.90;;;;;;5078707;28;20112;-84
2022/10/23 07:38:43;;;;;;;1999.90;999.90;;;10.50;99.90;;;;;;5079929;28;20047;-82
2022/10/23 07:41:10;;;;;;;1999.90;999.90;;;10.70;99.90;;;;;;5082098;28;20066;-87
2022/10/23 07:43:36;;;;;;;1999.90;999.90;;;10.80;99.90;;;;;;5078767;28;20098;-80
2022/10/23 07:46:02;;;;;;;1999.90;999.90;;;10.80;99.90;;;;;;5080671;28;20167;-81
2022/10/23 07:48:27;;;;;;;1999.90;999.90;;;10.90;99.90;;;;;;5079712;28;20116;-79
2022/10/23 07:50:57;;;;;;;1999.90;999.90;;;11.10;99.90;;;;;;5081782;28;20025;-80
2022/10/23 07:53:24;;;;;;;1999.90;999.90;;;11.20;99.90;;;;;;5076665;28;20040;-85
2022/10/23 07:55:59;;;;;;;1999.90;999.90;;;11.20;99.90;;;;;;5075098;28;20037;-83
2022/10/23 07:58:26;;;;;;;1999.90;999.90;;;11.20;99.90;;;;;;5060275;28;20033;-82
2022/10/23 08:00:57;;;;;;;1999.90;999.90;;;11.20;99.90;;;;;;5082736;28;20029;-82
2022/10/23 08:03:31;;;;;;;1999.90;999.90;;;11.20;99.90;;;;;;5093524;28;20039;-84
2022/10/23 08:05:57;;;;;;;1999.90;999.90;;;11.40;99.90;;;;;;5077568;28;20033;-82
2022/10/23 08:08:24;;;;;;;1999.90;999.90;;;11.40;99.90;;;;;;5079121;28;20040;-82
2022/10/23 08:10:51;;;;;;;1999.90;999.90;;;11.50;99.90;;;;;;5078646;28;20029;-82
2022/10/23 08:13:19;;;;;;;1999.90;999.90;;;11.50;99.90;;;;;;5078572;28;20037;-81
2022/10/23 08:15:46;;;;;;;1999.90;999.90;;;11.50;99.90;;;;;;5080213;28;20486;-85
2022/10/23 08:18:12;;;;;;;1999.90;999.90;;;11.60;99.90;;;;;;5080148;28;20033;-83
2022/10/23 08:20:43;;;;;;;1999.90;999.90;;;11.70;99.90;;;;;;5078926;28;20037;-82
2022/10/23 08:23:11;;;;;;;1999.90;999.90;;;11.60;99.90;;;;;;5075972;28;20036;-81
2022/10/23 08:25:37;;;;;;;1999.90;999.90;;;11.60;99.90;;;;;;5076879;28;20040;-82
2022/10/23 08:28:03;;;;;;;1999.90;999.90;;;11.80;99.90;;;;;;5076097;28;20458;-81
2022/10/23 08:30:28;;;;;;;1999.90;999.90;;;11.90;99.90;;;;;;5075978;28;20036;-82
2022/10/23 08:32:54;;;;;;;1999.90;999.90;;;11.90;99.90;;;;;;5076470;28;20041;-82
2022/10/23 08:35:20;;;;;;;1999.90;999.90;;;12.00;99.90;;;;;;5075238;28;20104;-82
2022/10/23 08:37:45;;;;;;;1999.90;999.90;;;12.10;99.90;;;;;;5076976;28;20041;-81
2022/10/23 08:40:21;;;;;;;1999.90;999.90;;;12.20;99.90;;;;;;5076325;28;20055;-83
2022/10/23 08:42:57;;;;;;;1999.90;999.90;;;12.30;99.90;;;;;;5078665;28;20037;-84
2022/10/23 08:45:39;;;;;;;1999.90;999.90;;;12.30;99.90;;;;;;5077333;28;20033;-81
2022/10/23 08:48:47;;;;;;;1999.90;999.90;;;12.40;99.90;;;;;;5077655;28;20033;-81
2022/10/23 08:51:16;;;;;;;1999.90;999.90;;;12.40;99.90;;;;;;4976908;28;20026;-82
2022/10/23 08:53:54;;;;;;;1999.90;999.90;;;12.60;99.90;;;;;;4977055;28;20035;-81
2022/10/23 08:56:34;;;;;;;1999.90;999.90;;;12.70;99.90;;;;;;5041525;28;20128;-79
2022/10/23 08:59:19;;;;;;;1999.90;999.90;;;12.70;99.90;;;;;;5073736;28;20041;-79
2022/10/23 09:01:57;;;;;;;1999.90;999.90;;;12.90;99.90;;;;;;5074948;28;20035;-82
2022/10/23 09:04:22;;;;;;;1999.90;999.90;;;13.00;99.90;;;;;;5074855;28;20033;-75
2022/10/23 09:06:53;;;;;;;1999.90;999.90;;;13.10;99.90;;;;;;5074983;28;20036;-76
2022/10/23 09:09:50;;;;;;;1999.90;999.90;;;13.30;99.90;;;;;;5073273;28;20036;-77
2022/10/23 09:12:24;;;;;;;1999.90;999.90;;;13.40;99.90;;;;;;5072739;28;20029;-76
2022/10/23 09:15:21;;;;;;;1999.90;999.90;;;13.60;99.90;;;;;;5074555;28;20029;-77
2022/10/23 09:17:52;;;;;;;1999.90;999.90;;;13.80;99.90;;;;;;5074881;28;20033;-77
2022/10/23 09:20:26;;;;;;;1999.90;999.90;;;14.10;99.90;;;;;;5074865;28;20485;-81
2022/10/23 09:22:59;;;;;;;1999.90;999.90;;;14.30;99.90;;;;;;5075035;28;20516;-79
2022/10/23 09:25:28;;;;;;;1999.90;999.90;;;14.40;99.90;;;;;;5074727;28;20791;-79
2022/10/23 09:27:57;;;;;;;1999.90;999.90;;;14.60;99.90;;;;;;5074700;28;20128;-78
2022/10/23 09:30:34;;;;;;;1999.90;999.90;;;14.80;99.90;;;;;;5074233;28;20108;-74
2022/10/23 09:33:11;;;;;;;1999.90;999.90;;;15.00;99.90;;;;;;5074433;28;20033;-79
2022/10/23 09:35:37;;;;;;;1999.90;999.90;;;15.10;99.90;;;;;;5074306;28;20558;-75
2022/10/23 09:38:03;;;;;;;1999.90;999.90;;;15.40;99.90;;;;;;5074251;28;20041;-75
2022/10/23 09:40:34;;;;;;;1999.90;999.90;;;15.60;99.90;;;;;;5073882;28;20104;-75
2022/10/23 09:43:11;;;;;;;1999.90;999.90;;;15.80;99.90;;;;;;5072897;28;20033;-75
2022/10/23 09:45:40;;;;;;;1999.90;999.90;;;15.80;99.90;;;;;;5074310;28;20116;-75
2022/10/23 09:48:12;;;;;;;1999.90;999.90;;;15.90;99.90;;;;;;5074113;28;20049;-74
2022/10/23 09:50:49;;;;;;;1999.90;999.90;;;16.00;99.90;;;;;;5073769;28;20505;-74
2022/10/23 09:53:30;;;;;;;1999.90;999.90;;;16.10;99.90;;;;;;5072359;28;20045;-75
2022/10/23 09:56:00;;;;;;;1999.90;999.90;;;16.20;99.90;;;;;;5072161;28;20048;-74
2022/10/23 09:58:38;;;;;;;1999.90;999.90;;;16.40;99.90;;;;;;5072206;28;20072;-75
2022/10/23 10:01:21;;;;;;;1999.90;999.90;;;16.40;99.90;;;;;;5073238;28;20033;-76
2022/10/23 10:03:50;;;;;;;1999.90;999.90;;;16.60;99.90;;;;;;5073506;28;20043;-75
2022/10/23 10:06:29;;;;;;;1999.90;999.90;;;16.70;99.90;;;;;;5073345;28;20056;-76
2022/10/23 10:09:01;;;;;;;1999.90;999.90;;;16.80;99.90;;;;;;5074049;28;20529;-76
2022/10/23 10:11:51;;;;;;;1999.90;999.90;;;16.90;99.90;;;;;;5076786;28;20033;-77
2022/10/23 10:14:26;;;;;;;1999.90;999.90;;;17.00;99.90;;;;;;5077473;28;20064;-76
2022/10/23 10:17:05;;;;;;;1999.90;999.90;;;17.20;99.90;;;;;;5077075;28;20029;-76
2022/10/23 10:19:55;;;;;;;1999.90;999.90;;;17.30;99.90;;;;;;5076505;28;20142;-77
2022/10/23 10:22:48;;;;;;;1999.90;999.90;;;17.40;99.90;;;;;;5059983;28;20031;-76
2022/10/23 10:25:27;;;;;;;1999.90;999.90;;;17.50;99.90;;;;;;5056213;28;20037;-76
2022/10/23 10:28:09;;;;;;;1999.90;999.90;;;17.60;99.90;;;;;;5056503;28;20541;-76
2022/10/23 10:31:00;;;;;;;1999.90;999.90;;;17.70;99.90;;;;;;5056435;28;20087;-76
2022/10/23 10:33:34;;;;;;;1999.90;999.90;;;17.90;99.90;;;;;;5057333;28;20021;-81
2022/10/23 10:36:39;;;;;;;1999.90;999.90;;;18.00;99.90;;;;;;5055333;28;20038;-77
2022/10/23 10:39:20;;;;;;;1999.90;999.90;;;18.30;99.90;;;;;;5055044;28;20040;-76
2022/10/23 10:42:04;;;;;;;1999.90;999.90;;;18.60;99.90;;;;;;5054588;28;20044;-77
2022/10/23 10:44:53;;;;;;;1999.90;999.90;;;18.90;99.90;;;;;;5055129;28;20116;-77
2022/10/23 10:47:24;;;;;;;1999.90;999.90;;;19.00;99.90;;;;;;5057100;28;20033;-77
2022/10/23 10:50:06;;;;;;;1999.90;999.90;;;19.20;99.90;;;;;;5059013;28;20037;-82
2022/10/23 10:52:46;;;;;;;1999.90;999.90;;;19.50;99.90;;;;;;5058605;28;20486;-79
2022/10/23 10:55:25;;;;;;;1999.90;999.90;;;19.70;99.90;;;;;;5057922;28;20088;-77
2022/10/23 10:58:04;;;;;;;1999.90;999.90;;;19.90;99.90;;;;;;5063038;28;20009;-77
2022/10/23 11:00:32;;;;;;;1999.90;999.90;;;19.90;99.90;;;;;;5090857;28;20067;-81
2022/10/23 11:03:09;;;;;;;1999.90;999.90;;;20.00;99.90;;;;;;5079337;28;20031;-76
2022/10/23 11:05:41;;;;;;;1999.90;999.90;;;20.30;99.90;;;;;;5076050;28;20033;-76
2022/10/23 11:08:13;;;;;;;1999.90;999.90;;;20.40;99.90;;;;;;5077187;28;20516;-79
2022/10/23 11:10:44;;;;;;;1999.90;999.90;;;20.50;99.90;;;;;;5076384;28;20040;-77
2022/10/23 11:13:32;;;;;;;1999.90;999.90;;;20.60;99.90;;;;;;5078610;28;20048;-84
2022/10/23 11:16:13;;;;;;;1999.90;999.90;;;20.70;99.90;;;;;;5076552;28;20063;-78
2022/10/23 11:18:42;;;;;;;1999.90;999.90;;;20.70;99.90;;;;;;5081196;28;20029;-80
2022/10/23 11:21:36;;;;;;;1999.90;999.90;;;20.80;99.90;;;;;;5076202;28;20477;-79
2022/10/23 11:24:32;;;;;;;1999.90;999.90;;;20.80;99.90;;;;;;5078439;28;20060;-80
2022/10/23 11:27:18;;;;;;;1999.90;999.90;;;20.70;99.90;;;;;;5077885;28;20025;-80
2022/10/23 11:30:05;;;;;;;1999.90;999.90;;;20.70;99.90;;;;;;5078789;28;20589;-79
2022/10/23 11:32:51;;;;;;;1999.90;999.90;;;21.10;99.90;;;;;;5078764;28;20951;-83
2022/10/23 11:35:32;;;;;;;1999.90;999.90;;;21.00;99.90;;;;;;5077218;28;20079;-83
2022/10/23 11:38:06;;;;;;;1999.90;999.90;;;20.70;99.90;;;;;;5075974;28;20119;-83
2022/10/23 11:40:32;;;;;;;1999.90;999.90;;;20.40;99.90;;;;;;5078297;28;20037;-81
2022/10/23 11:42:57;;;;;;;1999.90;999.90;;;20.20;99.90;;;;;;5079293;28;20029;-80
2022/10/23 11:45:35;;;;;;;1999.90;999.90;;;20.20;99.90;;;;;;5079663;28;20036;-85
2022/10/23 11:48:18;;;;;;;1999.90;999.90;;;20.20;99.90;;;;;;5080778;28;20101;-83
2022/10/23 11:50:44;;;;;;;1999.90;999.90;;;20.30;99.90;;;;;;5077022;28;20059;-82
2022/10/23 11:53:31;;;;;;;1999.90;999.90;;;20.40;99.90;;;;;;5075686;28;20033;-83
2022/10/23 11:56:11;;;;;;;1999.90;999.90;;;20.80;99.90;;;;;;5076893;28;20112;-79
2022/10/23 11:58:46;;;;;;;1999.90;999.90;;;21.00;99.90;;;;;;5075468;28;20029;-79
2022/10/23 12:01:32;;;;;;;1999.90;999.90;;;21.10;99.90;;;;;;5077401;28;20119;-81
2022/10/23 12:04:03;;;;;;;1999.90;999.90;;;21.30;99.90;;;;;;5079761;28;20035;-82
2022/10/23 12:06:37;;;;;;;1999.90;999.90;;;21.30;99.90;;;;;;5077363;28;20017;-79
2022/10/23 12:09:20;;;;;;;1999.90;999.90;;;21.20;99.90;;;;;;5058942;28;20124;-78
2022/10/23 12:11:50;;;;;;;1999.90;999.90;;;21.30;99.90;;;;;;5059428;28;20033;-79
2022/10/23 12:14:34;;;;;;;1999.90;999.90;;;21.50;99.90;;;;;;5059446;28;20084;-78
2022/10/23 12:17:00;;;;;;;1999.90;999.90;;;21.50;99.90;;;;;;5057669;28;20037;-78
2022/10/23 12:19:29;;;;;;;1999.90;999.90;;;21.50;99.90;;;;;;5059593;28;20056;-79
2022/10/23 12:22:00;;;;;;;1999.90;999.90;;;21.50;99.90;;;;;;5058748;28;20053;-79
2022/10/23 12:24:38;;;;;;;1999.90;999.90;;;21.30;99.90;;;;;;5059703;28;20034;-80
2022/10/23 12:27:22;;;;;;;1999.90;999.90;;;21.30;99.90;;;;;;5058292;28;20017;-79
2022/10/23 12:30:21;;;;;;;1999.90;999.90;;;21.30;99.90;;;;;;5060047;28;20041;-79
2022/10/23 12:33:11;;;;;;;1999.90;999.90;;;21.30;99.90;;;;;;5060138;28;20040;-78
2022/10/23 12:35:48;;;;;;;1999.90;999.90;;;21.40;99.90;;;;;;5078667;28;20041;-78
2022/10/23 12:38:24;;;;;;;1999.90;999.90;;;21.40;99.90;;;;;;5079379;28;20025;-78
2022/10/23 12:40:59;;;;;;;1999.90;999.90;;;21.40;99.90;;;;;;5068065;28;20040;-79
2022/10/23 12:43:31;;;;;;;1999.90;999.90;;;21.70;99.90;;;;;;5056286;28;20022;-78
2022/10/23 12:46:39;;;;;;;1999.90;999.90;;;21.80;99.90;;;;;;5059521;28;20029;-78
2022/10/23 12:49:13;;;;;;;1999.90;999.90;;;21.90;99.90;;;;;;5058325;28;20052;-78
2022/10/23 12:51:39;;;;;;;1999.90;999.90;;;22.20;99.90;;;;;;5070851;28;20037;-76
2022/10/23 12:54:18;;;;;;;1999.90;999.90;;;22.40;99.90;;;;;;5065467;28;20201;-78
2022/10/23 12:56:44;;;;;;;1999.90;999.90;;;22.40;99.90;;;;;;5072195;28;20068;-78
2022/10/23 12:59:19;;;;;;;1999.90;999.90;;;22.40;99.90;;;;;;5070649;28;20041;-78
2022/10/23 13:01:45;;;;;;;1999.90;999.90;;;22.30;99.90;;;;;;5081261;28;20488;-80
2022/10/23 13:04:30;;;;;;;1999.90;999.90;;;22.10;99.90;;;;;;5096938;28;20127;-78
2022/10/23 13:06:59;;;;;;;1999.90;999.90;;;21.90;99.90;;;;;;5095859;28;20528;-79
2022/10/23 13:09:33;;;;;;;1999.90;999.90;;;21.80;99.90;;;;;;5081154;28;20568;-78
2022/10/23 13:12:03;;;;;;;1999.90;999.90;;;21.70;99.90;;;;;;5068748;28;20021;-79
2022/10/23 13:14:32;;;;;;;1999.90;999.90;;;21.50;99.90;;;;;;5059110;28;20527;-79
2022/10/23 13:17:09;;;;;;;1999.90;999.90;;;21.30;99.90;;;;;;5072256;28;20094;-78
2022/10/23 13:19:34;;;;;;;1999.90;999.90;;;21.50;99.90;;;;;;5069878;28;20044;-73
2022/10/23 13:22:03;;;;;;;1999.90;999.90;;;21.90;99.90;;;;;;5068061;28;20044;-73
2022/10/23 13:24:30;;;;;;;1999.90;999.90;;;22.30;99.90;;;;;;5074190;28;20033;-73
2022/10/23 13:26:57;;;;;;;1999.90;999.90;;;22.50;99.90;;;;;;5073611;28;20029;-75
2022/10/23 13:29:29;;;;;;;1999.90;999.90;;;22.50;99.90;;;;;;5074008;28;20132;-75
2022/10/23 13:31:56;;;;;;;1999.90;999.90;;;22.80;99.90;;;;;;5073452;28;20033;-74
2022/10/23 13:34:28;;;;;;;1999.90;999.90;;;22.70;99.90;;;;;;5074086;28;20029;-75
2022/10/23 13:37:01;;;;;;;1999.90;999.90;;;22.60;99.90;;;;;;5075099;28;20029;-81
2022/10/23 13:39:29;;;;;;;1999.90;999.90;;;22.30;99.90;;;;;;5066131;28;20044;-80
2022/10/23 13:41:58;;;;;;;1999.90;999.90;;;22.20;99.90;;;;;;5057435;28;20029;-82
2022/10/23 13:44:25;;;;;;;1999.90;999.90;;;22.20;99.90;;;;;;5067391;28;20029;-81
2022/10/23 13:46:51;;;;;;;1999.90;999.90;;;22.20;99.90;;;;;;5080621;28;20485;-83
2022/10/23 13:49:17;;;;;;;1999.90;999.90;;;22.20;99.90;;;;;;5078717;28;20123;-81
2022/10/23 13:51:48;;;;;;;1999.90;999.90;;;22.00;99.90;;;;;;5078426;28;20546;-79
2022/10/23 13:54:17;;;;;;;1999.90;999.90;;;21.90;99.90;;;;;;5082550;28;20064;-78
2022/10/23 13:56:43;;;;;;;1999.90;999.90;;;21.70;99.90;;;;;;5082458;28;20064;-79
2022/10/23 13:59:10;;;;;;;1999.90;999.90;;;21.80;99.90;;;;;;5094048;28;20075;-79
2022/10/23 14:01:36;;;;;;;1999.90;999.90;;;21.90;99.90;;;;;;5083795;28;20529;-79
2022/10/23 14:04:04;;;;;;;1999.90;999.90;;;21.70;99.90;;;;;;5079366;28;20080;-79
2022/10/23 14:06:30;;;;;;;1999.90;999.90;;;21.70;99.90;;;;;;5080282;28;20116;-79
2022/10/23 14:08:56;;;;;;;1999.90;999.90;;;21.50;99.90;;;;;;5079952;28;20037;-79
2022/10/23 14:11:22;;;;;;;1999.90;999.90;;;21.10;99.90;;;;;;5079927;28;20029;-79
2022/10/23 14:13:48;;;;;;;1999.90;999.90;;;21.10;99.90;;;;;;5080676;28;20103;-79
2022/10/23 14:16:16;;;;;;;1999.90;999.90;;;20.90;99.90;;;;;;5080728;28;20115;-79
2022/10/23 14:18:43;;;;;;;1999.90;999.90;;;20.60;99.90;;;;;;5080462;28;20510;-79
2022/10/23 14:21:11;;;;;;;1999.90;999.90;;;20.40;99.90;;;;;;5079511;28;20033;-79
2022/10/23 14:23:37;;;;;;;1999.90;999.90;;;20.20;99.90;;;;;;5079931;28;20064;-79
2022/10/23 14:26:03;;;;;;;1999.90;999.90;;;20.10;99.90;;;;;;5078272;28;20119;-79
2022/10/23 14:28:29;;;;;;;1999.90;999.90;;;20.00;99.90;;;;;;5080368;28;20033;-79
2022/10/23 14:30:54;;;;;;;1999.90;999.90;;;19.90;99.90;;;;;;5080260;28;20029;-79
2022/10/23 14:33:20;;;;;;;1999.90;999.90;;;19.90;99.90;;;;;;5079102;28;20037;-79
2022/10/23 14:35:48;;;;;;;1999.90;999.90;;;19.60;99.90;;;;;;5079723;28;20033;-79
2022/10/23 14:38:13;;;;;;;1999.90;999.90;;;19.50;99.90;;;;;;5080352;28;20048;-79
2022/10/23 14:40:39;;;;;;;1999.90;999.90;;;19.40;99.90;;;;;;5079647;28;20394;-79
2022/10/23 14:43:05;;;;;;;1999.90;999.90;;;19.40;99.90;;;;;;5079554;28;20499;-79
2022/10/23 14:45:31;;;;;;;1999.90;999.90;;;19.50;99.90;;;;;;5080061;28;20028;-79
2022/10/23 14:47:56;;;;;;;1999.90;999.90;;;19.50;99.90;;;;;;5078583;28;20483;-79
2022/10/23 14:50:22;;;;;;;1999.90;999.90;;;19.50;99.90;;;;;;5079673;28;20079;-79
2022/10/23 14:52:47;;;;;;;1999.90;999.90;;;19.50;99.90;;;;;;5079496;28;20037;-79
2022/10/23 14:55:13;;;;;;;1999.90;999.90;;;19.40;99.90;;;;;;5078593;28;20108;-79
2022/10/23 14:57:38;;;;;;;1999.90;999.90;;;19.40;99.90;;;;;;5079611;28;20033;-79
2022/10/23 15:00:07;;;;;;;1999.90;999.90;;;19.30;99.90;;;;;;5080556;28;20040;-78
2022/10/23 15:02:33;;;;;;;1999.90;999.90;;;19.20;99.90;;;;;;5078144;28;20043;-80
2022/10/23 15:04:59;;;;;;;1999.90;999.90;;;19.10;99.90;;;;;;5080467;28;20147;-79
2022/10/23 15:07:24;;;;;;;1999.90;999.90;;;19.10;99.90;;;;;;5080443;28;20043;-79
2022/10/23 15:09:50;;;;;;;1999.90;999.90;;;19.00;99.90;;;;;;5080708;28;20090;-79
2022/10/23 15:12:16;;;;;;;1999.90;999.90;;;18.90;99.90;;;;;;5080285;28;20576;-79
2022/10/23 15:14:42;;;;;;;1999.90;999.90;;;18.80;99.90;;;;;;5081272;28;20166;-79
2022/10/23 15:17:07;;;;;;;1999.90;999.90;;;18.80;99.90;;;;;;5082298;28;20059;-79
2022/10/23 15:19:33;;;;;;;1999.90;999.90;;;18.60;99.90;;;;;;5084974;28;20037;-80
2022/10/23 15:21:59;;;;;;;1999.90;999.90;;;18.50;99.90;;;;;;5087874;28;20116;-79
2022/10/23 15:24:25;;;;;;;1999.90;999.90;;;18.50;99.90;;;;;;5084159;28;20077;-79
2022/10/23 15:26:51;;;;;;;1999.90;999.90;;;18.30;99.90;;;;;;5077832;28;20090;-79
2022/10/23 15:29:17;;;;;;;1999.90;999.90;;;18.30;99.90;;;;;;5078457;28;20095;-79
2022/10/23 15:32:02;;;;;;;1999.90;999.90;;;18.20;99.90;;;;;;5076700;28;20529;-79
2022/10/23 15:34:28;;;;;;;1999.90;999.90;;;18.10;99.90;;;;;;5078680;28;20527;-79
2022/10/23 15:36:55;;;;;;;1999.90;999.90;;;18.00;99.90;;;;;;5077861;28;20035;-79
2022/10/23 15:39:27;;;;;;;1999.90;999.90;;;18.00;99.90;;;;;;5077096;28;20079;-79
2022/10/23 15:41:55;;;;;;;1999.90;999.90;;;17.90;99.90;;;;;;5079416;28;20021;-79
2022/10/23 15:44:24;;;;;;;1999.90;999.90;;;17.90;99.90;;;;;;5077546;28;20094;-79
2022/10/23 15:46:50;;;;;;;1999.90;999.90;;;17.90;99.90;;;;;;5078826;28;20033;-79
2022/10/23 15:49:17;;;;;;;1999.90;999.90;;;17.80;99.90;;;;;;5078763;28;20502;-79
2022/10/23 15:51:43;;;;;;;1999.90;999.90;;;17.70;99.90;;;;;;5079062;28;20056;-79
2022/10/23 15:54:15;;;;;;;1999.90;999.90;;;17.70;99.90;;;;;;5077571;28;20064;-79
2022/10/23 15:56:41;;;;;;;1999.90;999.90;;;17.60;99.90;;;;;;5078766;28;20033;-79
2022/10/23 15:59:07;;;;;;;1999.90;999.90;;;17.60;99.90;;;;;;5077526;28;20548;-78
2022/10/23 16:01:32;;;;;;;1999.90;999.90;;;17.70;99.90;;;;;;5077991;28;20033;-82
2022/10/23 16:03:58;;;;;;;1999.90;999.90;;;17.70;99.90;;;;;;5079526;28;20062;-81
2022/10/23 16:06:24;;;;;;;1999.90;999.90;;;17.60;99.90;;;;;;5078283;28;20533;-78
2022/10/23 16:08:50;;;;;;;1999.90;999.90;;;17.50;99.90;;;;;;5078756;28;20053;-80
2022/10/23 16:11:25;;;;;;;1999.90;999.90;;;17.40;99.90;;;;;;5078092;28;20033;-81
2022/10/23 16:13:52;;;;;;;1999.90;999.90;;;17.20;99.90;;;;;;5076900;28;20471;-82
2022/10/23 16:16:18;;;;;;;1999.90;999.90;;;17.10;99.90;;;;;;5076386;28;20065;-81
2022/10/23 16:18:44;;;;;;;1999.90;999.90;;;16.90;99.90;;;;;;5077950;28;20122;-78